Time;durP1;ratioP1;P1;durP2;ratioP2;P2;SDS_P1;SDS_P2;PMS_P1;PMS_P2;Temp;Humidity;BMP_temperature;BMP_pressure;BME280_temperature;BME280_humidity;BME280_pressure;Samples;Min_cycle;Max_cycle;Signal;HPM_P1;HPM_P2
2022/05/12 00:00:24;;;;;;;;;;;;;;;;;;4829120;28;110308;-64
2022/05/12 00:02:50;;;;;;;;;;;;;;;;;;4830929;28;126286;-65
2022/05/12 00:05:16;;;;;;;;;;;;;;;;;;4832530;28;115734;-65
2022/05/12 00:07:46;;;;;;;;;;;;;;;;;;4828234;28;137374;-65
2022/05/12 00:10:13;;;;;;;;;;;;;;;;;;4828990;28;106214;-65
2022/05/12 00:12:39;;;;;;;;;;;;;;;;;;4830688;28;124000;-64
2022/05/12 00:15:06;;;;;;;;;;;;;;;;;;4827368;28;106064;-64
2022/05/12 00:17:32;;;;;;;;;;;;;;;;;;4835913;28;123791;-65
2022/05/12 00:20:00;;;;;;;;;;;;;;;;;;4827372;28;136501;-64
2022/05/12 00:22:26;;;;;;;;;;;;;;;;;;4864401;28;123174;-65
2022/05/12 00:24:53;;;;;;;;;;;;;;;;;;4861936;28;136568;-65
2022/05/12 00:27:19;;;;;;;;;;;;;;;;;;4830708;28;134802;-65
2022/05/12 00:29:45;;;;;;;;;;;;;;;;;;4834559;28;106703;-64
2022/05/12 00:32:11;;;;;;;;;;;;;;;;;;4842904;28;132541;-65
2022/05/12 00:34:38;;;;;;;;;;;;;;;;;;4838633;28;134712;-65
2022/05/12 00:37:04;;;;;;;;;;;;;;;;;;4849116;28;123348;-66
2022/05/12 00:39:30;;;;;;;;;;;;;;;;;;4850233;28;135717;-65
2022/05/12 00:41:57;;;;;;;;;;;;;;;;;;4898904;28;106199;-65
2022/05/12 00:44:23;;;;;;;;;;;;;;;;;;4862289;28;115029;-64
2022/05/12 00:46:50;;;;;;;;;;;;;;;;;;4832919;28;137074;-63
2022/05/12 00:49:18;;;;;;;;;;;;;;;;;;4832078;28;122002;-64
2022/05/12 00:51:44;;;;;;;;;;;;;;;;;;4830997;28;135154;-64
2022/05/12 00:54:10;;;;;;;;;;;;;;;;;;4832328;28;135960;-64
2022/05/12 00:56:37;;;;;;;;;;;;;;;;;;4842559;28;106239;-64
2022/05/12 00:59:03;;;;;;;;;;;;;;;;;;4838782;28;135766;-64
2022/05/12 01:01:29;;;;;;;;;;;;;;;;;;4880098;28;135688;-64
2022/05/12 01:03:56;;;;;;;;;;;;;;;;;;4836324;28;135500;-64
2022/05/12 01:06:22;;;;;;;;;;;;;;;;;;4848745;28;110587;-65
2022/05/12 01:08:48;;;;;;;;;;;;;;;;;;4832813;28;120930;-64
2022/05/12 01:14:01;;;;;;;;;;;;;;;;;;4863940;28;107532;-65
2022/05/12 01:16:27;;;;;;;;;;;;;;;;;;4868546;28;106334;-65
2022/05/12 01:18:54;;;;;;;;;;;;;;;;;;4870429;28;123967;-64
2022/05/12 01:21:20;;;;;;;;;;;;;;;;;;4869489;28;107252;-65
2022/05/12 01:23:48;;;;;;;;;;;;;;;;;;4873606;28;122606;-65
2022/05/12 01:26:14;;;;;;;;;;;;;;;;;;4871024;28;135721;-65
2022/05/12 01:28:41;;;;;;;;;;;;;;;;;;4866080;28;121976;-64
2022/05/12 01:31:07;;;;;;;;;;;;;;;;;;4869728;28;135253;-65
2022/05/12 01:33:33;;;;;;;;;;;;;;;;;;4870298;28;135295;-66
2022/05/12 01:36:00;;;;;;;;;;;;;;;;;;4870700;28;123794;-65
2022/05/12 01:38:26;;;;;;;;;;;;;;;;;;4869666;28;105802;-65
2022/05/12 01:40:52;;;;;;;;;;;;;;;;;;4870940;28;134367;-65
2022/05/12 01:43:19;;;;;;;;;;;;;;;;;;4873835;28;121627;-65
2022/05/12 01:45:45;;;;;;;;;;;;;;;;;;4868538;28;137339;-64
2022/05/12 01:48:11;;;;;;;;;;;;;;;;;;4870674;28;123689;-64
2022/05/12 01:50:38;;;;;;;;;;;;;;;;;;4871760;28;115223;-64
2022/05/12 01:53:04;;;;;;;;;;;;;;;;;;4869593;28;135329;-65
2022/05/12 01:55:31;;;;;;;;;;;;;;;;;;4869059;28;113798;-64
2022/05/12 01:57:57;;;;;;;;;;;;;;;;;;4864589;28;136391;-64
2022/05/12 02:00:24;;;;;;;;;;;;;;;;;;4870690;28;137602;-64
2022/05/12 02:02:50;;;;;;;;;;;;;;;;;;4866001;28;122883;-64
2022/05/12 02:05:17;;;;;;;;;;;;;;;;;;4875568;28;134800;-64
2022/05/12 02:07:43;;;;;;;;;;;;;;;;;;4872081;28;123837;-64
2022/05/12 02:10:09;;;;;;;;;;;;;;;;;;4873715;28;137015;-64
2022/05/12 02:12:35;;;;;;;;;;;;;;;;;;4872943;28;138020;-65
2022/05/12 02:15:02;;;;;;;;;;;;;;;;;;4872521;28;121819;-64
2022/05/12 02:17:28;;;;;;;;;;;;;;;;;;4873297;28;136582;-64
2022/05/12 02:19:54;;;;;;;;;;;;;;;;;;4874621;28;135836;-64
2022/05/12 02:22:20;;;;;;;;;;;;;;;;;;4871883;28;122799;-64
2022/05/12 02:24:47;;;;;;;;;;;;;;;;;;4873525;28;107017;-64
2022/05/12 02:27:13;;;;;;;;;;;;;;;;;;4874381;28;137061;-64
2022/05/12 02:29:39;;;;;;;;;;;;;;;;;;4869776;28;121428;-65
2022/05/12 02:32:06;;;;;;;;;;;;;;;;;;4872905;28;136992;-65
2022/05/12 02:34:32;;;;;;;;;;;;;;;;;;4875266;28;106239;-65
2022/05/12 02:37:01;;;;;;;;;;;;;;;;;;4874076;28;136623;-64
2022/05/12 02:39:27;;;;;;;;;;;;;;;;;;4867373;28;137292;-65
2022/05/12 02:41:54;;;;;;;;;;;;;;;;;;4872371;28;123498;-65
2022/05/12 02:44:20;;;;;;;;;;;;;;;;;;4874196;28;136359;-64
2022/05/12 02:46:46;;;;;;;;;;;;;;;;;;4870613;28;137412;-64
2022/05/12 02:49:13;;;;;;;;;;;;;;;;;;4876375;28;123264;-64
2022/05/12 02:51:39;;;;;;;;;;;;;;;;;;4871519;28;137582;-64
2022/05/12 02:54:05;;;;;;;;;;;;;;;;;;4872216;28;123608;-64
2022/05/12 02:56:31;;;;;;;;;;;;;;;;;;4874213;28;135220;-66
2022/05/12 02:58:58;;;;;;;;;;;;;;;;;;4872718;28;137287;-64
2022/05/12 03:01:24;;;;;;;;;;;;;;;;;;4868943;28;114577;-65
2022/05/12 03:03:50;;;;;;;;;;;;;;;;;;4873471;28;116023;-65
2022/05/12 03:06:17;;;;;;;;;;;;;;;;;;4872850;28;136049;-65
2022/05/12 03:08:44;;;;;;;;;;;;;;;;;;4873887;28;122001;-65
2022/05/12 03:11:10;;;;;;;;;;;;;;;;;;4875244;28;136638;-65
2022/05/12 03:13:37;;;;;;;;;;;;;;;;;;4867781;28;121953;-65
2022/05/12 03:16:04;;;;;;;;;;;;;;;;;;4867914;28;137305;-67
2022/05/12 03:18:30;;;;;;;;;;;;;;;;;;4874039;28;132956;-64
2022/05/12 03:20:56;;;;;;;;;;;;;;;;;;4874112;28;108068;-64
2022/05/12 03:23:23;;;;;;;;;;;;;;;;;;4873731;28;106989;-65
2022/05/12 03:25:49;;;;;;;;;;;;;;;;;;4872725;28;135654;-65
2022/05/12 03:28:15;;;;;;;;;;;;;;;;;;4872095;28;123416;-65
2022/05/12 03:30:43;;;;;;;;;;;;;;;;;;4868667;28;136319;-64
2022/05/12 03:33:10;;;;;;;;;;;;;;;;;;4872924;28;106725;-64
2022/05/12 03:35:36;;;;;;;;;;;;;;;;;;4872604;28;135050;-65
2022/05/12 03:38:02;;;;;;;;;;;;;;;;;;4872063;28;137171;-65
2022/05/12 03:40:30;;;;;;;;;;;;;;;;;;4870823;28;123328;-64
2022/05/12 03:42:59;;;;;;;;;;;;;;;;;;4873603;28;106136;-64
2022/05/12 03:45:25;;;;;;;;;;;;;;;;;;4871960;28;137153;-64
2022/05/12 03:47:52;;;;;;;;;;;;;;;;;;4871503;28;122304;-64
2022/05/12 03:50:18;;;;;;;;;;;;;;;;;;4870925;28;136678;-64
2022/05/12 03:52:45;;;;;;;;;;;;;;;;;;4875348;28;137013;-64
2022/05/12 03:55:11;;;;;;;;;;;;;;;;;;4872574;28;135336;-65
2022/05/12 03:57:38;;;;;;;;;;;;;;;;;;4868931;28;137004;-65
2022/05/12 04:00:06;;;;;;;;;;;;;;;;;;4870446;28;123149;-65
2022/05/12 04:02:35;;;;;;;;;;;;;;;;;;4871732;28;105920;-65
2022/05/12 04:05:02;;;;;;;;;;;;;;;;;;4872757;28;107352;-64
2022/05/12 04:07:28;;;;;;;;;;;;;;;;;;4872761;28;127484;-64
2022/05/12 04:09:54;;;;;;;;;;;;;;;;;;4871776;28;135827;-64
2022/05/12 04:12:21;;;;;;;;;;;;;;;;;;4869653;28;136438;-66
2022/05/12 04:14:47;;;;;;;;;;;;;;;;;;4874863;28;121680;-64
2022/05/12 04:17:15;;;;;;;;;;;;;;;;;;4864989;28;135934;-64
2022/05/12 04:19:42;;;;;;;;;;;;;;;;;;4872616;28;106145;-64
2022/05/12 04:22:08;;;;;;;;;;;;;;;;;;4873490;28;135164;-64
2022/05/12 04:24:34;;;;;;;;;;;;;;;;;;4871612;28;135494;-65
2022/05/12 04:27:00;;;;;;;;;;;;;;;;;;4870249;28;122253;-64
2022/05/12 04:29:27;;;;;;;;;;;;;;;;;;4869454;28;139172;-64
2022/05/12 04:31:53;;;;;;;;;;;;;;;;;;4870618;28;136189;-64
2022/05/12 04:37:04;;;;;;;;;;;;;;;;;;4873763;28;115390;-67
2022/05/12 04:39:31;;;;;;;;;;;;;;;;;;4870477;28;119415;-64
2022/05/12 04:42:02;;;;;;;;;;;;;;;;;;4871290;28;136329;-64
2022/05/12 04:44:28;;;;;;;;;;;;;;;;;;4870175;28;135849;-64
2022/05/12 04:46:55;;;;;;;;;;;;;;;;;;4872915;28;106332;-64
2022/05/12 04:49:22;;;;;;;;;;;;;;;;;;4869174;28;136594;-66
2022/05/12 04:51:48;;;;;;;;;;;;;;;;;;4870773;28;138315;-64
2022/05/12 04:54:18;;;;;;;;;;;;;;;;;;4868726;28;123757;-64
2022/05/12 04:56:44;;;;;;;;;;;;;;;;;;4868597;28;135833;-64
2022/05/12 04:59:10;;;;;;;;;;;;;;;;;;4878246;28;126782;-66
2022/05/12 05:01:37;;;;;;;;;;;;;;;;;;4874743;28;135147;-64
2022/05/12 05:04:03;;;;;;;;;;;;;;;;;;4871747;28;135668;-66
2022/05/12 05:06:29;;;;;;;;;;;;;;;;;;4871955;28;112136;-65
2022/05/12 05:08:56;;;;;;;;;;;;;;;;;;4869367;28;136381;-65
2022/05/12 05:11:22;;;;;;;;;;;;;;;;;;4870179;28;137060;-66
2022/05/12 05:13:48;;;;;;;;;;;;;;;;;;4872224;28;112575;-65
2022/05/12 05:16:15;;;;;;;;;;;;;;;;;;4871788;28;135297;-65
2022/05/12 05:18:41;;;;;;;;;;;;;;;;;;4861286;28;135860;-66
2022/05/12 05:21:09;;;;;;;;;;;;;;;;;;4874612;28;126284;-65
2022/05/12 05:23:35;;;;;;;;;;;;;;;;;;4870179;28;137213;-64
2022/05/12 05:26:02;;;;;;;;;;;;;;;;;;4870791;28;122313;-64
2022/05/12 05:28:28;;;;;;;;;;;;;;;;;;4871162;28;123197;-64
2022/05/12 05:30:54;;;;;;;;;;;;;;;;;;4871458;28;137173;-64
2022/05/12 05:33:21;;;;;;;;;;;;;;;;;;4869510;28;120651;-64
2022/05/12 05:35:47;;;;;;;;;;;;;;;;;;4867713;28;107181;-65
2022/05/12 05:38:13;;;;;;;;;;;;;;;;;;4866555;28;121595;-66
2022/05/12 05:40:40;;;;;;;;;;;;;;;;;;4870952;28;123514;-65
2022/05/12 05:43:11;;;;;;;;;;;;;;;;;;4865477;28;135566;-65
2022/05/12 05:45:38;;;;;;;;;;;;;;;;;;4871257;28;124479;-65
2022/05/12 05:48:04;;;;;;;;;;;;;;;;;;4870653;28;135946;-66
2022/05/12 05:50:31;;;;;;;;;;;;;;;;;;4871409;28;119974;-65
2022/05/12 05:55:42;;;;;;;;;;;;;;;;;;4868959;28;136619;-65
2022/05/12 05:58:08;;;;;;;;;;;;;;;;;;4870102;28;135422;-66
2022/05/12 06:00:36;;;;;;;;;;;;;;;;;;4865463;28;121921;-66
2022/05/12 06:03:02;;;;;;;;;;;;;;;;;;4872266;28;135088;-65
2022/05/12 06:05:29;;;;;;;;;;;;;;;;;;4871437;28;105692;-65
2022/05/12 06:07:55;;;;;;;;;;;;;;;;;;4867320;28;136507;-65
2022/05/12 06:10:22;;;;;;;;;;;;;;;;;;4856304;28;136103;-68
2022/05/12 06:12:49;;;;;;;;;;;;;;;;;;4869520;28;124217;-65
2022/05/12 06:15:15;;;;;;;;;;;;;;;;;;4868605;28;136665;-65
2022/05/12 06:17:41;;;;;;;;;;;;;;;;;;4869981;28;136910;-65
2022/05/12 06:20:07;;;;;;;;;;;;;;;;;;4866707;28;123250;-65
2022/05/12 06:22:34;;;;;;;;;;;;;;;;;;4869123;28;137616;-64
2022/05/12 06:25:00;;;;;;;;;;;;;;;;;;4873765;28;137259;-65
2022/05/12 06:27:26;;;;;;;;;;;;;;;;;;4869056;28;136069;-66
2022/05/12 06:29:53;;;;;;;;;;;;;;;;;;4869725;28;137087;-65
2022/05/12 06:32:19;;;;;;;;;;;;;;;;;;4868205;28;108743;-65
2022/05/12 06:34:46;;;;;;;;;;;;;;;;;;4866354;28;136996;-67
2022/05/12 06:37:12;;;;;;;;;;;;;;;;;;4860891;28;136421;-65
2022/05/12 06:39:39;;;;;;;;;;;;;;;;;;4871653;28;107891;-65
2022/05/12 06:42:05;;;;;;;;;;;;;;;;;;4866138;28;135085;-66
2022/05/12 06:44:42;;;;;;;;;;;;;;;;;;4867001;28;109555;-66
2022/05/12 06:47:08;;;;;;;;;;;;;;;;;;4875479;28;123246;-66
2022/05/12 06:49:35;;;;;;;;;;;;;;;;;;4873873;28;122334;-65
2022/05/12 06:52:03;;;;;;;;;;;;;;;;;;4872042;28;123754;-66
2022/05/12 06:54:30;;;;;;;;;;;;;;;;;;4872016;28;126006;-68
2022/05/12 06:56:56;;;;;;;;;;;;;;;;;;4862566;28;137028;-64
2022/05/12 06:59:22;;;;;;;;;;;;;;;;;;4871397;28;126525;-66
2022/05/12 07:01:48;;;;;;;;;;;;;;;;;;4875886;28;128940;-65
2022/05/12 07:04:15;;;;;;;;;;;;;;;;;;4872420;28;134942;-64
2022/05/12 07:06:41;;;;;;;;;;;;;;;;;;4870517;28;121550;-64
2022/05/12 07:09:07;;;;;;;;;;;;;;;;;;4872147;28;136686;-64
2022/05/12 07:11:34;;;;;;;;;;;;;;;;;;4872258;28;106905;-66
2022/05/12 07:14:00;;;;;;;;;;;;;;;;;;4873458;28;126959;-68
2022/05/12 07:16:27;;;;;;;;;;;;;;;;;;4872092;28;136331;-64
2022/05/12 07:18:53;;;;;;;;;;;;;;;;;;4870662;28;121754;-63
2022/05/12 07:26:50;;;;;;;;;;;;;;;;;;4871350;28;121828;-66
2022/05/12 07:29:16;;;;;;;;;;;;;;;;;;4872313;28;121679;-66
2022/05/12 07:31:43;;;;;;;;;;;;;;;;;;4875165;28;137994;-65
2022/05/12 07:34:09;;;;;;;;;;;;;;;;;;4870928;28;135133;-66
2022/05/12 07:36:36;;;;;;;;;;;;;;;;;;4871215;28;137897;-66
2022/05/12 07:39:02;;;;;;;;;;;;;;;;;;4873249;28;123267;-65
2022/05/12 07:41:28;;;;;;;;;;;;;;;;;;4869640;28;137576;-66
2022/05/12 07:43:54;;;;;;;;;;;;;;;;;;4872285;28;137129;-65
2022/05/12 07:46:21;;;;;;;;;;;;;;;;;;4869524;28;124369;-66
2022/05/12 07:48:48;;;;;;;;;;;;;;;;;;4872508;28;135325;-66
2022/05/12 07:51:14;;;;;;;;;;;;;;;;;;4870790;28;134435;-66
2022/05/12 07:53:40;;;;;;;;;;;;;;;;;;4870401;28;136578;-65
2022/05/12 07:56:07;;;;;;;;;;;;;;;;;;4870405;28;130513;-65
2022/05/12 07:58:33;;;;;;;;;;;;;;;;;;4871408;28;121895;-66
2022/05/12 08:00:59;;;;;;;;;;;;;;;;;;4871710;28;129268;-66
2022/05/12 08:03:26;;;;;;;;;;;;;;;;;;4871350;28;135480;-66
2022/05/12 08:05:53;;;;;;;;;;;;;;;;;;4871411;28;119603;-66
2022/05/12 08:08:19;;;;;;;;;;;;;;;;;;4871614;28;135063;-66
2022/05/12 08:10:45;;;;;;;;;;;;;;;;;;4866845;28;136371;-67
2022/05/12 08:13:16;;;;;;;;;;;;;;;;;;4873485;28;108046;-66
2022/05/12 08:15:42;;;;;;;;;;;;;;;;;;4869383;28;136547;-66
2022/05/12 08:18:08;;;;;;;;;;;;;;;;;;4868072;28;114206;-68
2022/05/12 08:20:35;;;;;;;;;;;;;;;;;;4870625;28;136303;-66
2022/05/12 08:23:01;;;;;;;;;;;;;;;;;;4868740;28;137539;-66
2022/05/12 08:25:29;;;;;;;;;;;;;;;;;;4870268;28;123446;-66
2022/05/12 08:27:55;;;;;;;;;;;;;;;;;;4870725;28;106328;-66
2022/05/12 08:30:22;;;;;;;;;;;;;;;;;;4868819;28;135943;-66
2022/05/12 08:32:48;;;;;;;;;;;;;;;;;;4871659;28;123197;-66
2022/05/12 08:35:14;;;;;;;;;;;;;;;;;;4873610;28;128167;-67
2022/05/12 08:37:40;;;;;;;;;;;;;;;;;;4871212;28;124067;-67
2022/05/12 08:40:07;;;;;;;;;;;;;;;;;;4867658;28;132053;-67
2022/05/12 08:42:33;;;;;;;;;;;;;;;;;;4864401;28;136960;-67
2022/05/12 08:45:00;;;;;;;;;;;;;;;;;;4871816;28;124100;-67
2022/05/12 08:47:26;;;;;;;;;;;;;;;;;;4869653;28;137251;-67
2022/05/12 08:49:52;;;;;;;;;;;;;;;;;;4869737;28;135781;-66
2022/05/12 08:52:18;;;;;;;;;;;;;;;;;;4863705;28;124313;-66
2022/05/12 08:54:47;;;;;;;;;;;;;;;;;;4864178;28;114069;-67
2022/05/12 08:57:13;;;;;;;;;;;;;;;;;;4872879;28;121810;-67
2022/05/12 08:59:39;;;;;;;;;;;;;;;;;;4865956;28;136671;-67
2022/05/12 09:02:05;;;;;;;;;;;;;;;;;;4871340;28;106359;-67
2022/05/12 09:04:32;;;;;;;;;;;;;;;;;;4858694;28;121891;-67
2022/05/12 09:06:58;;;;;;;;;;;;;;;;;;4869578;28;135440;-66
2022/05/12 09:09:24;;;;;;;;;;;;;;;;;;4869664;28;133920;-68
2022/05/12 09:11:51;;;;;;;;;;;;;;;;;;4870181;28;123975;-68
2022/05/12 09:14:17;;;;;;;;;;;;;;;;;;4869994;28;139702;-67
2022/05/12 09:16:43;;;;;;;;;;;;;;;;;;4869990;28;130389;-67
2022/05/12 09:19:10;;;;;;;;;;;;;;;;;;4871589;28;108756;-67
2022/05/12 09:21:36;;;;;;;;;;;;;;;;;;4870299;28;128088;-66
2022/05/12 09:24:03;;;;;;;;;;;;;;;;;;4870307;28;122071;-66
2022/05/12 09:26:29;;;;;;;;;;;;;;;;;;4869836;28;138009;-66
2022/05/12 09:28:56;;;;;;;;;;;;;;;;;;4870376;28;137975;-66
2022/05/12 09:31:22;;;;;;;;;;;;;;;;;;4867204;28;120491;-67
2022/05/12 09:33:48;;;;;;;;;;;;;;;;;;4870482;28;119784;-68
2022/05/12 09:36:14;;;;;;;;;;;;;;;;;;4868336;28;130959;-66
2022/05/12 09:38:41;;;;;;;;;;;;;;;;;;4870231;28;121165;-68
2022/05/12 09:41:07;;;;;;;;;;;;;;;;;;4873290;28;136620;-67
2022/05/12 09:43:33;;;;;;;;;;;;;;;;;;4866720;28;121564;-66
2022/05/12 09:46:00;;;;;;;;;;;;;;;;;;4871256;28;121909;-66
2022/05/12 09:48:27;;;;;;;;;;;;;;;;;;4869081;28;107942;-66
2022/05/12 09:50:53;;;;;;;;;;;;;;;;;;4870682;28;106338;-67
2022/05/12 09:53:20;;;;;;;;;;;;;;;;;;4869603;28;137198;-67
2022/05/12 09:55:46;;;;;;;;;;;;;;;;;;4868844;28;134173;-67
2022/05/12 09:58:12;;;;;;;;;;;;;;;;;;4869328;28;108985;-67
2022/05/12 10:00:39;;;;;;;;;;;;;;;;;;4871748;28;137706;-67
2022/05/12 10:08:35;;;;;;;;;;;;;;;;;;4868345;28;132457;-67
2022/05/12 10:11:01;;;;;;;;;;;;;;;;;;4868687;28;123064;-67
2022/05/12 10:13:28;;;;;;;;;;;;;;;;;;4866144;28;137080;-66
2022/05/12 10:15:54;;;;;;;;;;;;;;;;;;4868861;28;137118;-67
2022/05/12 10:18:24;;;;;;;;;;;;;;;;;;4860619;28;123169;-67
2022/05/12 10:20:50;;;;;;;;;;;;;;;;;;4864571;28;126404;-67
2022/05/12 10:23:17;;;;;;;;;;;;;;;;;;4873655;28;132286;-67
2022/05/12 10:25:47;;;;;;;;;;;;;;;;;;4871835;28;135346;-67
2022/05/12 10:28:13;;;;;;;;;;;;;;;;;;4871584;28;138268;-67
2022/05/12 10:30:41;;;;;;;;;;;;;;;;;;4873194;28;107009;-67
2022/05/12 10:33:07;;;;;;;;;;;;;;;;;;4872768;28;138314;-66
2022/05/12 10:35:33;;;;;;;;;;;;;;;;;;4873339;28;108315;-67
2022/05/12 10:38:00;;;;;;;;;;;;;;;;;;4872826;28;122079;-67
2022/05/12 10:40:26;;;;;;;;;;;;;;;;;;4871800;28;135939;-67
2022/05/12 10:42:53;;;;;;;;;;;;;;;;;;4869565;28;136803;-67
2022/05/12 10:45:20;;;;;;;;;;;;;;;;;;4875880;28;123286;-65
2022/05/12 10:47:46;;;;;;;;;;;;;;;;;;4872329;28;108318;-67
2022/05/12 10:50:12;;;;;;;;;;;;;;;;;;4873202;28;113914;-68
2022/05/12 10:52:38;;;;;;;;;;;;;;;;;;4864383;28;136791;-67
2022/05/12 10:55:05;;;;;;;;;;;;;;;;;;4871932;28;125336;-67
2022/05/12 10:57:31;;;;;;;;;;;;;;;;;;4870467;28;105739;-68
2022/05/12 10:59:57;;;;;;;;;;;;;;;;;;4873170;28;135484;-67
2022/05/12 11:02:24;;;;;;;;;;;;;;;;;;4872798;28;136441;-68
2022/05/12 11:04:50;;;;;;;;;;;;;;;;;;4871370;28;126794;-68
2022/05/12 11:07:16;;;;;;;;;;;;;;;;;;4875872;28;135235;-67
2022/05/12 11:09:46;;;;;;;;;;;;;;;;;;4873833;28;124323;-68
2022/05/12 11:12:13;;;;;;;;;;;;;;;;;;4866913;28;133294;-68
2022/05/12 11:14:39;;;;;;;;;;;;;;;;;;4873108;28;135777;-69
2022/05/12 11:17:07;;;;;;;;;;;;;;;;;;4870128;28;123613;-68
2022/05/12 11:19:34;;;;;;;;;;;;;;;;;;4867856;28;127316;-69
2022/05/12 11:22:00;;;;;;;;;;;;;;;;;;4866351;28;137901;-69
2022/05/12 11:24:26;;;;;;;;;;;;;;;;;;4870317;28;107461;-70
2022/05/12 11:26:57;;;;;;;;;;;;;;;;;;4869285;28;135123;-69
2022/05/12 11:29:41;;;;;;;;;;;;;;;;;;4873477;28;136699;-69
2022/05/12 11:32:07;;;;;;;;;;;;;;;;;;4872997;28;135598;-70
2022/05/12 11:34:34;;;;;;;;;;;;;;;;;;4870858;28;135824;-70
2022/05/12 11:37:00;;;;;;;;;;;;;;;;;;4870951;28;121882;-71
2022/05/12 11:39:26;;;;;;;;;;;;;;;;;;4870588;28;115386;-68
2022/05/12 11:41:53;;;;;;;;;;;;;;;;;;4868411;28;137168;-69
2022/05/12 11:44:26;;;;;;;;;;;;;;;;;;4871673;28;107087;-70
2022/05/12 11:46:53;;;;;;;;;;;;;;;;;;4870853;28;139590;-68
2022/05/12 11:49:19;;;;;;;;;;;;;;;;;;4871642;28;136304;-68
2022/05/12 11:51:45;;;;;;;;;;;;;;;;;;4873338;28;123274;-67
2022/05/12 11:54:12;;;;;;;;;;;;;;;;;;4866826;28;122143;-68
2022/05/12 11:56:38;;;;;;;;;;;;;;;;;;4869898;28;106924;-67
2022/05/12 11:59:04;;;;;;;;;;;;;;;;;;4871222;28;136760;-67
2022/05/12 12:01:31;;;;;;;;;;;;;;;;;;4866518;28;136562;-68
2022/05/12 12:03:57;;;;;;;;;;;;;;;;;;4866070;28;114353;-69
2022/05/12 12:06:23;;;;;;;;;;;;;;;;;;4871825;28;136692;-68
2022/05/12 12:08:50;;;;;;;;;;;;;;;;;;4866003;28;138226;-68
2022/05/12 12:11:17;;;;;;;;;;;;;;;;;;4853633;28;122393;-68
2022/05/12 12:13:48;;;;;;;;;;;;;;;;;;4871517;28;138966;-68
2022/05/12 12:16:14;;;;;;;;;;;;;;;;;;4874101;28;123201;-68
2022/05/12 12:18:41;;;;;;;;;;;;;;;;;;4871594;28;135287;-68
2022/05/12 12:21:07;;;;;;;;;;;;;;;;;;4871266;28;136292;-68
2022/05/12 12:23:33;;;;;;;;;;;;;;;;;;4870551;28;123185;-68
2022/05/12 12:26:00;;;;;;;;;;;;;;;;;;4873765;28;117507;-68
2022/05/12 12:28:27;;;;;;;;;;;;;;;;;;4868514;28;137265;-68
2022/05/12 12:30:53;;;;;;;;;;;;;;;;;;4870296;28;124270;-69
2022/05/12 12:33:20;;;;;;;;;;;;;;;;;;4874645;28;107149;-69
2022/05/12 12:35:46;;;;;;;;;;;;;;;;;;4866782;28;112159;-69
2022/05/12 12:38:12;;;;;;;;;;;;;;;;;;4870628;28;135715;-69
2022/05/12 12:40:39;;;;;;;;;;;;;;;;;;4866483;28;115789;-69
2022/05/12 12:43:06;;;;;;;;;;;;;;;;;;4871359;28;124430;-69
2022/05/12 12:45:32;;;;;;;;;;;;;;;;;;4871319;28;136920;-69
2022/05/12 12:47:59;;;;;;;;;;;;;;;;;;4870008;28;137796;-68
2022/05/12 12:50:25;;;;;;;;;;;;;;;;;;4870411;28;123611;-69
2022/05/12 12:52:51;;;;;;;;;;;;;;;;;;4871373;28;116198;-69
2022/05/12 12:58:02;;;;;;;;;;;;;;;;;;4868194;28;136206;-69
2022/05/12 13:00:29;;;;;;;;;;;;;;;;;;4870834;28;138405;-69
2022/05/12 13:02:55;;;;;;;;;;;;;;;;;;4869978;28;106155;-70
2022/05/12 13:05:22;;;;;;;;;;;;;;;;;;4868912;28;137000;-69
2022/05/12 13:07:48;;;;;;;;;;;;;;;;;;4871675;28;135458;-69
2022/05/12 13:10:16;;;;;;;;;;;;;;;;;;4861039;28;122581;-70
2022/05/12 13:12:42;;;;;;;;;;;;;;;;;;4868838;28;135359;-69
2022/05/12 13:15:08;;;;;;;;;;;;;;;;;;4870571;28;134303;-69
2022/05/12 13:17:38;;;;;;;;;;;;;;;;;;4874022;28;123157;-69
2022/05/12 13:20:04;;;;;;;;;;;;;;;;;;4868028;28;136576;-69
2022/05/12 13:22:32;;;;;;;;;;;;;;;;;;4866174;28;120192;-69
2022/05/12 13:24:58;;;;;;;;;;;;;;;;;;4871656;28;106034;-69
2022/05/12 13:27:24;;;;;;;;;;;;;;;;;;4868866;28;117220;-69
2022/05/12 13:29:51;;;;;;;;;;;;;;;;;;4868325;28;122049;-70
2022/05/12 13:32:18;;;;;;;;;;;;;;;;;;4871176;28;135304;-70
2022/05/12 13:34:44;;;;;;;;;;;;;;;;;;4863450;28;137280;-70
2022/05/12 13:37:10;;;;;;;;;;;;;;;;;;4864782;28;122660;-70
2022/05/12 13:39:36;;;;;;;;;;;;;;;;;;4871500;28;136254;-70
2022/05/12 13:42:03;;;;;;;;;;;;;;;;;;4870119;28;123980;-69
2022/05/12 13:44:31;;;;;;;;;;;;;;;;;;4872230;28;134590;-69
2022/05/12 13:46:59;;;;;;;;;;;;;;;;;;4870835;28;136488;-71
2022/05/12 13:49:25;;;;;;;;;;;;;;;;;;4866878;28;114038;-69
2022/05/12 13:51:52;;;;;;;;;;;;;;;;;;4860160;28;130024;-70
2022/05/12 13:54:32;;;;;;;;;;;;;;;;;;4865452;28;136412;-70
2022/05/12 13:56:59;;;;;;;;;;;;;;;;;;4873159;28;120321;-70
2022/05/12 13:59:25;;;;;;;;;;;;;;;;;;4877809;28;107302;-70
2022/05/12 14:01:51;;;;;;;;;;;;;;;;;;4876213;28;106457;-70
2022/05/12 14:04:18;;;;;;;;;;;;;;;;;;4859301;28;135299;-69
2022/05/12 14:06:45;;;;;;;;;;;;;;;;;;4875653;28;138574;-70
2022/05/12 14:09:12;;;;;;;;;;;;;;;;;;4876264;28;123028;-71
2022/05/12 14:11:56;;;;;;;;;;;;;;;;;;4869607;28;130284;-71
2022/05/12 14:19:53;;;;;;;;;;;;;;;;;;4872365;28;135391;-71
2022/05/12 14:22:19;;;;;;;;;;;;;;;;;;4876165;28;136026;-71
2022/05/12 14:24:46;;;;;;;;;;;;;;;;;;4873087;28;138026;-70
2022/05/12 14:27:12;;;;;;;;;;;;;;;;;;4873844;28;136003;-71
2022/05/12 14:29:39;;;;;;;;;;;;;;;;;;4874876;28;122869;-71
2022/05/12 14:32:05;;;;;;;;;;;;;;;;;;4874079;28;137540;-71
2022/05/12 14:34:31;;;;;;;;;;;;;;;;;;4871042;28;125955;-71
2022/05/12 14:37:00;;;;;;;;;;;;;;;;;;4872142;28;124376;-70
2022/05/12 14:39:27;;;;;;;;;;;;;;;;;;4872942;28;135598;-70
2022/05/12 14:41:53;;;;;;;;;;;;;;;;;;4851887;28;135821;-70
2022/05/12 14:44:19;;;;;;;;;;;;;;;;;;4868817;28;115800;-69
2022/05/12 14:46:46;;;;;;;;;;;;;;;;;;4873262;28;137315;-69
2022/05/12 14:49:12;;;;;;;;;;;;;;;;;;4873705;28;122185;-69
2022/05/12 14:51:38;;;;;;;;;;;;;;;;;;4875367;28;122653;-69
2022/05/12 14:54:05;;;;;;;;;;;;;;;;;;4875159;28;135802;-69
2022/05/12 14:56:31;;;;;;;;;;;;;;;;;;4869994;28;116266;-69
2022/05/12 14:58:57;;;;;;;;;;;;;;;;;;4868471;28;117447;-69
2022/05/12 15:01:24;;;;;;;;;;;;;;;;;;4862882;28;112514;-69
2022/05/12 15:03:51;;;;;;;;;;;;;;;;;;4868744;28;107840;-69
2022/05/12 15:06:17;;;;;;;;;;;;;;;;;;4864483;28;115789;-70
2022/05/12 15:08:43;;;;;;;;;;;;;;;;;;4855973;28;122239;-70
2022/05/12 15:11:10;;;;;;;;;;;;;;;;;;4856703;28;133909;-70
2022/05/12 15:13:36;;;;;;;;;;;;;;;;;;4856109;28;137386;-77
2022/05/12 15:16:02;;;;;;;;;;;;;;;;;;4868126;28;122199;-68
2022/05/12 15:18:29;;;;;;;;;;;;;;;;;;4872904;28;111702;-69
2022/05/12 15:20:55;;;;;;;;;;;;;;;;;;4867568;28;111312;-69
2022/05/12 15:23:22;;;;;;;;;;;;;;;;;;4866584;28;123979;-68
2022/05/12 15:25:49;;;;;;;;;;;;;;;;;;4863333;28;118958;-69
2022/05/12 15:28:15;;;;;;;;;;;;;;;;;;4873687;28;107797;-68
2022/05/12 15:30:41;;;;;;;;;;;;;;;;;;4872463;28;136680;-69
2022/05/12 15:33:08;;;;;;;;;;;;;;;;;;4864320;28;137560;-69
2022/05/12 15:35:34;;;;;;;;;;;;;;;;;;4870962;28;125352;-69
2022/05/12 15:38:00;;;;;;;;;;;;;;;;;;4871183;28;136649;-69
2022/05/12 15:40:27;;;;;;;;;;;;;;;;;;4870875;28;107877;-68
2022/05/12 15:42:53;;;;;;;;;;;;;;;;;;4870053;28;122856;-68
2022/05/12 15:45:19;;;;;;;;;;;;;;;;;;4863470;28;136764;-68
2022/05/12 15:47:46;;;;;;;;;;;;;;;;;;4866953;28;138364;-67
2022/05/12 15:50:12;;;;;;;;;;;;;;;;;;4871404;28;116341;-67
2022/05/12 15:52:39;;;;;;;;;;;;;;;;;;4871306;28;135710;-67
2022/05/12 15:55:06;;;;;;;;;;;;;;;;;;4866756;28;107053;-67
2022/05/12 15:57:33;;;;;;;;;;;;;;;;;;4863705;28;130598;-67
2022/05/12 15:59:59;;;;;;;;;;;;;;;;;;4863697;28;137483;-68
2022/05/12 16:02:26;;;;;;;;;;;;;;;;;;4868902;28;106718;-68
2022/05/12 16:04:53;;;;;;;;;;;;;;;;;;4871783;28;116034;-68
2022/05/12 16:07:19;;;;;;;;;;;;;;;;;;4870906;28;135757;-68
2022/05/12 16:09:46;;;;;;;;;;;;;;;;;;4871720;28;123036;-67
2022/05/12 16:14:55;;;;;;;;;;;;;;;;;;4871063;28;124607;-67
2022/05/12 16:17:24;;;;;;;;;;;;;;;;;;4860718;28;135573;-68
2022/05/12 16:19:50;;;;;;;;;;;;;;;;;;4869782;28;137280;-68
2022/05/12 16:22:16;;;;;;;;;;;;;;;;;;4879112;28;122439;-67
2022/05/12 16:24:43;;;;;;;;;;;;;;;;;;4870175;28;135261;-68
2022/05/12 16:27:09;;;;;;;;;;;;;;;;;;4870715;28;137213;-67
2022/05/12 16:29:35;;;;;;;;;;;;;;;;;;4865586;28;123440;-67
2022/05/12 16:32:01;;;;;;;;;;;;;;;;;;4871840;28;134997;-67
2022/05/12 16:34:28;;;;;;;;;;;;;;;;;;4857058;28;124435;-67
2022/05/12 16:36:54;;;;;;;;;;;;;;;;;;4866418;28;134940;-68
2022/05/12 16:39:24;;;;;;;;;;;;;;;;;;4865172;28;130542;-68
2022/05/12 16:41:50;;;;;;;;;;;;;;;;;;4871328;28;108744;-68
2022/05/12 16:44:17;;;;;;;;;;;;;;;;;;4872349;28;136810;-66
2022/05/12 16:46:43;;;;;;;;;;;;;;;;;;4869086;28;137286;-67
2022/05/12 16:49:16;;;;;;;;;;;;;;;;;;4872511;28;107210;-67
2022/05/12 16:51:42;;;;;;;;;;;;;;;;;;4867501;28;113328;-68
2022/05/12 16:54:11;;;;;;;;;;;;;;;;;;4871799;28;137146;-67